createdAt,value
2022-11-27T00:00:57.939Z,0
2022-11-27T00:01:57.411Z,0
2022-11-27T00:02:58.641Z,0
2022-11-27T00:03:58.476Z,0
2022-11-27T00:04:57.641Z,0
2022-11-27T00:05:57.877Z,0
2022-11-27T00:06:57.597Z,0
2022-11-27T00:07:58.607Z,0
2022-11-27T00:08:58.064Z,0
2022-11-27T00:09:57.271Z,0
2022-11-27T00:10:57.514Z,0
2022-11-27T00:11:57.491Z,0
2022-11-27T00:12:57.722Z,0
2022-11-27T00:13:57.839Z,0
2022-11-27T00:15:02.769Z,0
2022-11-27T00:15:57.783Z,0
2022-11-27T00:16:57.655Z,0
2022-11-27T00:17:57.638Z,0
2022-11-27T00:18:57.812Z,0
2022-11-27T00:19:57.876Z,0
2022-11-27T00:20:57.875Z,0
2022-11-27T00:21:57.587Z,0
2022-11-27T00:22:57.803Z,0
2022-11-27T00:23:57.796Z,0
2022-11-27T00:24:56.998Z,0
2022-11-27T00:25:56.991Z,0
2022-11-27T00:26:57.475Z,0
2022-11-27T00:27:57.195Z,0
2022-11-27T00:28:57.188Z,0
2022-11-27T00:29:57.421Z,0
2022-11-27T00:30:57.809Z,0
2022-11-27T00:31:57.120Z,0
2022-11-27T00:32:57.096Z,0
2022-11-27T00:33:57.600Z,0
2022-11-27T00:34:56.832Z,0
2022-11-27T00:35:57.566Z,0
2022-11-27T00:36:57.847Z,0
2022-11-27T00:37:57.287Z,0
2022-11-27T00:38:56.994Z,0
2022-11-27T00:39:57.255Z,0
2022-11-27T00:40:57.474Z,0
2022-11-27T00:41:56.937Z,0
2022-11-27T00:42:56.680Z,0
2022-11-27T00:43:57.175Z,0
2022-11-27T00:44:57.146Z,0
2022-11-27T00:45:57.246Z,0
2022-11-27T00:46:57.314Z,0
2022-11-27T00:47:57.085Z,0
2022-11-27T00:49:00.983Z,0
2022-11-27T00:49:57.046Z,0
2022-11-27T00:50:57.116Z,0
2022-11-27T00:51:56.528Z,0
2022-11-27T00:52:56.784Z,0
2022-11-27T00:53:56.728Z,0
2022-11-27T00:54:56.701Z,0
2022-11-27T00:55:56.702Z,0
2022-11-27T00:56:56.916Z,0
2022-11-27T00:57:56.634Z,0
2022-11-27T00:58:57.138Z,0
2022-11-27T00:59:56.354Z,0
2022-11-27T01:00:56.846Z,0
2022-11-27T01:01:56.915Z,0
2022-11-27T01:02:57.270Z,0
2022-11-27T01:03:57.039Z,0
2022-11-27T01:04:56.268Z,0
2022-11-27T01:05:56.240Z,0
2022-11-27T01:06:56.754Z,0
2022-11-27T01:07:57.064Z,0
2022-11-27T01:08:56.489Z,0
2022-11-27T01:09:56.421Z,0
2022-11-27T01:11:04.012Z,0
2022-11-27T01:11:56.382Z,0
2022-11-27T01:12:56.620Z,0
2022-11-27T01:13:56.860Z,0
2022-11-27T01:14:56.582Z,0
2022-11-27T01:15:56.552Z,0
2022-11-27T01:16:56.800Z,0
2022-11-27T01:17:56.528Z,0
2022-11-27T01:18:56.841Z,0
2022-11-27T01:19:56.492Z,0
2022-11-27T01:20:56.205Z,0
2022-11-27T01:21:56.449Z,0
2022-11-27T01:22:56.712Z,0
2022-11-27T01:23:56.169Z,0
2022-11-27T01:24:56.418Z,0
2022-11-27T01:25:56.393Z,0
2022-11-27T01:26:56.417Z,0
2022-11-27T01:27:56.329Z,0
2022-11-27T01:28:56.055Z,0
2022-11-27T01:29:56.060Z,0
2022-11-27T01:30:56.868Z,0
2022-11-27T01:31:56.457Z,0
2022-11-27T01:32:56.489Z,0
2022-11-27T01:33:56.247Z,0
2022-11-27T01:34:59.191Z,0
2022-11-27T01:36:28.256Z,0
2022-11-27T01:36:56.420Z,0
2022-11-27T01:37:56.087Z,0
2022-11-27T01:38:56.296Z,0
2022-11-27T01:39:56.237Z,0
2022-11-27T01:40:56.244Z,0
2022-11-27T01:41:55.982Z,0
2022-11-27T01:42:56.438Z,0
2022-11-27T01:43:55.672Z,0
2022-11-27T01:44:55.896Z,0
2022-11-27T01:45:55.871Z,0
2022-11-27T01:46:56.201Z,0
2022-11-27T01:47:55.592Z,0
2022-11-27T01:48:55.840Z,0
2022-11-27T01:49:56.065Z,0
2022-11-27T01:50:56.393Z,0
2022-11-27T01:51:55.756Z,0
2022-11-27T01:52:55.481Z,0
2022-11-27T01:53:55.463Z,0
2022-11-27T01:54:56.239Z,0
2022-11-27T01:55:55.678Z,0
2022-11-27T01:56:55.688Z,0
2022-11-27T01:57:55.899Z,0
2022-11-27T01:58:55.958Z,0
2022-11-27T01:59:55.599Z,0
2022-11-27T02:00:56.089Z,0
2022-11-27T02:01:56.481Z,0
2022-11-27T02:02:55.809Z,0
2022-11-27T02:03:56.036Z,0
2022-11-27T02:04:56.022Z,0
2022-11-27T02:05:55.996Z,0
2022-11-27T02:06:55.798Z,0
2022-11-27T02:07:55.771Z,0
2022-11-27T02:08:55.699Z,0
2022-11-27T02:09:55.658Z,0
2022-11-27T02:10:55.666Z,0
2022-11-27T02:11:55.661Z,0
2022-11-27T02:12:55.372Z,0
2022-11-27T02:13:55.955Z,0
2022-11-27T02:14:55.565Z,0
2022-11-27T02:15:55.965Z,0
2022-11-27T02:16:55.275Z,0
2022-11-27T02:17:55.505Z,0
2022-11-27T02:18:55.260Z,0
2022-11-27T02:19:55.225Z,0
2022-11-27T02:20:55.457Z,0
2022-11-27T02:21:55.174Z,0
2022-11-27T02:22:55.160Z,0
2022-11-27T02:23:55.139Z,0
2022-11-27T02:24:55.142Z,0
2022-11-27T02:25:55.614Z,0
2022-11-27T02:26:55.088Z,0
2022-11-27T02:27:55.550Z,0
2022-11-27T02:28:54.788Z,0
2022-11-27T02:29:55.276Z,0
2022-11-27T02:30:55.031Z,0
2022-11-27T02:31:55.513Z,0
2022-11-27T02:32:55.211Z,0
2022-11-27T02:33:54.946Z,0
2022-11-27T02:34:55.471Z,0
2022-11-27T02:35:54.913Z,0
2022-11-27T02:36:55.156Z,0
2022-11-27T02:37:55.378Z,0
2022-11-27T02:38:55.103Z,0
2022-11-27T02:39:54.821Z,0
2022-11-27T02:40:54.797Z,0
2022-11-27T02:41:54.538Z,0
2022-11-27T02:42:55.882Z,0
2022-11-27T02:43:54.491Z,0
2022-11-27T02:44:54.209Z,0
2022-11-27T02:45:54.448Z,0
2022-11-27T02:46:55.754Z,0
2022-11-27T02:47:55.185Z,0
2022-11-27T02:48:54.388Z,0
2022-11-27T02:49:54.629Z,0
2022-11-27T02:50:54.866Z,0
2022-11-27T02:51:54.582Z,0
2022-11-27T02:52:54.571Z,0
2022-11-27T02:53:54.558Z,0
2022-11-27T02:54:55.042Z,0
2022-11-27T02:55:54.285Z,0
2022-11-27T02:56:54.248Z,0
2022-11-27T02:57:54.478Z,0
2022-11-27T02:59:01.374Z,0
2022-11-27T02:59:55.064Z,0
2022-11-27T03:00:54.161Z,0
2022-11-27T03:01:54.470Z,0
2022-11-27T03:02:54.740Z,0
2022-11-27T03:03:54.863Z,0
2022-11-27T03:04:55.106Z,0
2022-11-27T03:05:55.857Z,0
2022-11-27T03:06:56.345Z,0
2022-11-27T03:07:55.996Z,0
2022-11-27T03:08:55.613Z,0
2022-11-27T03:09:56.039Z,0
2022-11-27T03:10:56.014Z,0
2022-11-27T03:11:56.009Z,0
2022-11-27T03:12:55.476Z,0
2022-11-27T03:13:55.715Z,0
2022-11-27T03:15:02.584Z,0
2022-11-27T03:15:56.276Z,0
2022-11-27T03:16:55.649Z,0
2022-11-27T03:17:56.650Z,0
2022-11-27T03:18:55.873Z,0
2022-11-27T03:19:55.837Z,0
2022-11-27T03:20:55.817Z,0
2022-11-27T03:21:55.547Z,0
2022-11-27T03:22:55.778Z,0
2022-11-27T03:23:55.780Z,0
2022-11-27T03:24:55.991Z,0
2022-11-27T03:25:55.715Z,0
2022-11-27T03:26:55.284Z,0
2022-11-27T03:27:55.423Z,0
2022-11-27T03:28:55.682Z,0
2022-11-27T03:29:55.640Z,0
2022-11-27T03:30:56.452Z,0
2022-11-27T03:31:55.592Z,0
2022-11-27T03:32:55.085Z,0
2022-11-27T03:49:57.792Z,0
2022-11-27T03:50:56.678Z,0
2022-11-27T03:51:57.184Z,0
2022-11-27T03:52:56.649Z,0
2022-11-27T03:53:56.608Z,0
2022-11-27T03:54:57.085Z,0
2022-11-27T03:55:56.808Z,0
2022-11-27T03:56:56.562Z,0
2022-11-27T03:57:56.254Z,0
2022-11-27T03:58:56.489Z,0
2022-11-27T03:59:55.961Z,0
2022-11-27T04:00:56.456Z,0
2022-11-27T04:01:57.148Z,0
2022-11-27T04:02:56.664Z,0
2022-11-27T04:03:56.714Z,0
2022-11-27T04:04:55.858Z,0
2022-11-27T04:05:57.461Z,0
2022-11-27T04:06:56.384Z,0
2022-11-27T04:07:57.319Z,0
2022-11-27T04:08:56.547Z,0
2022-11-27T04:09:56.275Z,0
2022-11-27T04:10:56.020Z,0
2022-11-27T04:11:55.968Z,0
2022-11-27T04:12:56.709Z,0
2022-11-27T04:13:55.984Z,0
2022-11-27T04:14:56.166Z,0
2022-11-27T04:15:56.831Z,0
2022-11-27T04:16:56.148Z,0
2022-11-27T04:17:56.358Z,0
2022-11-27T04:18:56.100Z,0
2022-11-27T04:19:56.347Z,0
2022-11-27T04:20:56.554Z,0
2022-11-27T04:21:57.142Z,0
2022-11-27T04:22:55.486Z,0
2022-11-27T04:23:56.245Z,0
2022-11-27T04:24:56.225Z,0
2022-11-27T04:25:56.457Z,0
2022-11-27T04:26:56.547Z,0
2022-11-27T04:27:56.212Z,0
2022-11-27T04:28:55.889Z,0
2022-11-27T04:29:55.872Z,0
2022-11-27T04:30:55.942Z,0
2022-11-27T04:31:56.786Z,0
2022-11-27T04:32:56.058Z,0
2022-11-27T04:33:55.545Z,0
2022-11-27T04:34:56.042Z,0
2022-11-27T04:35:56.027Z,0
2022-11-27T04:36:55.725Z,0
2022-11-27T04:38:02.607Z,0
2022-11-27T04:38:56.066Z,0
2022-11-27T04:39:55.674Z,0
2022-11-27T04:40:55.651Z,0
2022-11-27T04:41:55.627Z,0
2022-11-27T04:42:55.368Z,0
2022-11-27T04:43:55.344Z,0
2022-11-27T04:44:55.573Z,0
2022-11-27T04:45:55.808Z,0
2022-11-27T04:46:56.240Z,0
2022-11-27T04:47:55.771Z,0
2022-11-27T04:48:56.006Z,0
2022-11-27T04:49:55.984Z,0
2022-11-27T04:50:55.719Z,0
2022-11-27T04:51:55.697Z,0
2022-11-27T04:52:55.671Z,0
2022-11-27T04:53:56.366Z,0
2022-11-27T04:55:02.732Z,0
2022-11-27T04:55:55.614Z,0
2022-11-27T04:56:55.583Z,0
2022-11-27T04:57:55.820Z,0
2022-11-27T04:58:55.324Z,0
2022-11-27T04:59:55.524Z,0
2022-11-27T05:00:55.562Z,0
2022-11-27T05:01:55.237Z,0
2022-11-27T05:02:55.620Z,0
2022-11-27T05:03:55.197Z,0
2022-11-27T05:04:55.175Z,0
2022-11-27T05:05:55.565Z,0
2022-11-27T05:06:55.810Z,0
2022-11-27T05:07:55.993Z,0
2022-11-27T05:08:55.250Z,0
2022-11-27T05:09:56.477Z,0
2022-11-27T05:10:55.589Z,0
2022-11-27T05:11:55.710Z,0
2022-11-27T05:12:55.417Z,0
2022-11-27T05:13:55.657Z,0
2022-11-27T05:14:55.664Z,0
2022-11-27T05:15:55.358Z,0
2022-11-27T05:16:55.360Z,0
2022-11-27T05:17:55.580Z,0
2022-11-27T05:18:55.828Z,0
2022-11-27T05:19:55.543Z,0
2022-11-27T05:20:55.527Z,0
2022-11-27T05:21:54.993Z,0
2022-11-27T05:22:55.766Z,0
2022-11-27T05:23:54.948Z,0
2022-11-27T05:24:55.823Z,0
2022-11-27T05:25:56.786Z,0
2022-11-27T05:26:55.744Z,0
2022-11-27T05:27:55.771Z,0
2022-11-27T05:28:55.482Z,0
2022-11-27T05:29:55.718Z,0
2022-11-27T05:30:56.624Z,0
2022-11-27T05:31:56.207Z,0
2022-11-27T05:32:55.401Z,0
2022-11-27T05:33:55.386Z,0
2022-11-27T05:34:55.367Z,0
2022-11-27T05:35:55.366Z,0
2022-11-27T05:36:55.834Z,0
2022-11-27T05:37:56.084Z,0
2022-11-27T05:38:55.811Z,0
2022-11-27T05:39:55.527Z,0
2022-11-27T05:40:55.505Z,0
2022-11-27T05:41:56.476Z,0
2022-11-27T05:42:55.850Z,0
2022-11-27T05:43:55.442Z,0
2022-11-27T05:45:03.053Z,0
2022-11-27T05:45:55.412Z,0
2022-11-27T05:46:55.817Z,0
2022-11-27T05:47:55.363Z,0
2022-11-27T05:48:55.352Z,0
2022-11-27T05:49:55.583Z,0
2022-11-27T05:50:55.570Z,0
2022-11-27T05:52:00.395Z,0
2022-11-27T05:52:55.011Z,0
2022-11-27T05:53:55.515Z,0
2022-11-27T05:54:55.740Z,0
2022-11-27T05:55:55.470Z,0
2022-11-27T05:56:55.190Z,0
2022-11-27T05:57:56.165Z,0
2022-11-27T05:58:55.842Z,0
2022-11-27T05:59:55.239Z,0
2022-11-27T06:00:55.130Z,0
2022-11-27T06:01:55.961Z,0
2022-11-27T06:02:56.536Z,0
2022-11-27T06:03:55.552Z,0
2022-11-27T06:04:54.783Z,0
2022-11-27T06:05:55.525Z,0
2022-11-27T06:06:54.744Z,0
2022-11-27T06:07:55.625Z,0
2022-11-27T06:08:55.223Z,0
2022-11-27T06:09:55.037Z,0
2022-11-27T06:10:54.414Z,0
2022-11-27T06:11:54.903Z,0
2022-11-27T06:12:54.918Z,0
2022-11-27T06:13:55.933Z,0
2022-11-27T06:14:54.845Z,0
2022-11-27T06:15:55.073Z,0
2022-11-27T06:16:55.821Z,0
2022-11-27T06:17:55.035Z,0
2022-11-27T06:18:55.276Z,0
2022-11-27T06:19:55.058Z,0
2022-11-27T06:21:02.338Z,0
2022-11-27T06:21:54.702Z,0
2022-11-27T06:22:54.693Z,0
2022-11-27T06:23:54.664Z,0
2022-11-27T06:24:54.645Z,0
2022-11-27T06:25:54.884Z,0
2022-11-27T06:26:54.872Z,0
2022-11-27T06:27:54.578Z,0
2022-11-27T06:28:54.555Z,0
2022-11-27T06:29:55.626Z,0
2022-11-27T06:30:54.392Z,0
2022-11-27T06:31:55.326Z,0
2022-11-27T06:32:55.005Z,0
2022-11-27T06:33:54.472Z,0
2022-11-27T06:34:55.144Z,0
2022-11-27T06:35:54.423Z,0
2022-11-27T06:36:54.407Z,0
2022-11-27T06:37:54.392Z,0
2022-11-27T06:38:54.881Z,0
2022-11-27T06:39:54.351Z,0
2022-11-27T06:40:54.843Z,5
2022-11-27T06:41:54.075Z,5
2022-11-27T06:42:54.549Z,5
2022-11-27T06:43:54.270Z,5
2022-11-27T06:44:53.746Z,5
2022-11-27T06:45:55.597Z,5
2022-11-27T06:46:53.835Z,5
2022-11-27T06:47:54.454Z,5
2022-11-27T06:48:54.428Z,5
2022-11-27T06:49:54.764Z,5
2022-11-27T06:50:54.139Z,10
2022-11-27T06:51:53.938Z,10
2022-11-27T06:52:53.837Z,10
2022-11-27T06:53:54.109Z,10
2022-11-27T06:54:53.959Z,10
2022-11-27T06:55:54.293Z,10
2022-11-27T06:56:54.281Z,10
2022-11-27T06:57:53.755Z,10
2022-11-27T06:58:53.464Z,15
2022-11-27T06:59:54.229Z,15
2022-11-27T07:00:54.735Z,15
2022-11-27T07:01:55.325Z,15
2022-11-27T07:02:54.536Z,15
2022-11-27T07:03:54.140Z,15
2022-11-27T07:04:54.117Z,20
2022-11-27T07:05:53.326Z,20
2022-11-27T07:06:53.817Z,20
2022-11-27T07:07:54.214Z,20
2022-11-27T07:08:53.281Z,20
2022-11-27T07:09:54.282Z,20
2022-11-27T07:10:53.755Z,20
2022-11-27T07:11:53.726Z,25
2022-11-27T07:12:53.716Z,25
2022-11-27T07:13:53.689Z,25
2022-11-27T07:14:53.401Z,25
2022-11-27T07:15:53.905Z,25
2022-11-27T07:16:54.081Z,25
2022-11-27T07:17:54.489Z,25
2022-11-27T07:18:54.086Z,30
2022-11-27T07:19:53.567Z,30
2022-11-27T07:20:59.022Z,30
2022-11-27T07:21:54.049Z,30
2022-11-27T07:22:53.762Z,30
2022-11-27T07:23:53.767Z,30
2022-11-27T07:24:53.480Z,30
2022-11-27T07:25:53.744Z,30
2022-11-27T07:26:53.194Z,30
2022-11-27T07:27:53.413Z,30
2022-11-27T07:28:53.652Z,30
2022-11-27T07:29:53.897Z,30
2022-11-27T07:30:53.351Z,35
2022-11-27T07:31:53.873Z,35
2022-11-27T07:32:53.586Z,35
2022-11-27T07:33:54.003Z,35
2022-11-27T07:34:53.785Z,35
2022-11-27T07:35:53.009Z,35
2022-11-27T07:36:53.294Z,35
2022-11-27T07:37:53.475Z,35
2022-11-27T07:38:53.481Z,35
2022-11-27T07:40:13.064Z,35
2022-11-27T07:40:55.981Z,40
2022-11-27T07:41:53.154Z,40
2022-11-27T07:42:53.118Z,40
2022-11-27T07:43:53.121Z,40
2022-11-27T07:44:53.093Z,40
2022-11-27T07:45:53.404Z,40
2022-11-27T07:46:53.569Z,40
2022-11-27T07:47:53.028Z,40
2022-11-27T07:48:52.643Z,45
2022-11-27T07:49:59.922Z,45
2022-11-27T07:50:53.091Z,45
2022-11-27T07:51:53.237Z,45
2022-11-27T07:52:52.934Z,45
2022-11-27T07:53:52.748Z,45
2022-11-27T07:54:52.649Z,45
2022-11-27T07:55:52.874Z,45
2022-11-27T07:56:52.863Z,45
2022-11-27T07:57:52.837Z,45
2022-11-27T07:58:53.337Z,45
2022-11-27T07:59:56.821Z,45
2022-11-27T08:00:53.605Z,45
2022-11-27T08:01:52.774Z,45
2022-11-27T08:02:52.748Z,45
2022-11-27T08:03:52.744Z,45
2022-11-27T08:04:54.260Z,50
2022-11-27T08:05:53.599Z,50
2022-11-27T08:06:52.807Z,50
2022-11-27T08:07:53.344Z,50
2022-11-27T08:08:52.673Z,50
2022-11-27T08:09:52.609Z,50
2022-11-27T08:10:52.080Z,50
2022-11-27T08:11:52.319Z,50
2022-11-27T08:12:52.553Z,50
2022-11-27T08:13:52.798Z,50
2022-11-27T08:14:52.598Z,50
2022-11-27T08:15:52.761Z,50
2022-11-27T08:16:52.927Z,50
2022-11-27T08:17:52.961Z,50
2022-11-27T08:18:52.723Z,50
2022-11-27T08:19:52.685Z,50
2022-11-27T08:20:52.649Z,50
2022-11-27T08:21:53.120Z,55
2022-11-27T08:22:52.480Z,55
2022-11-27T08:23:52.341Z,55
2022-11-27T08:24:52.841Z,55
2022-11-27T08:25:52.810Z,55
2022-11-27T08:26:53.528Z,55
2022-11-27T08:27:53.248Z,55
2022-11-27T08:28:52.723Z,55
2022-11-27T08:29:52.701Z,55
2022-11-27T08:30:52.950Z,55
2022-11-27T08:31:53.824Z,55
2022-11-27T08:32:52.641Z,55
2022-11-27T08:33:53.407Z,55
2022-11-27T08:34:53.234Z,55
2022-11-27T08:35:53.339Z,55
2022-11-27T08:36:52.825Z,55
2022-11-27T08:37:53.547Z,55
2022-11-27T08:38:53.187Z,55
2022-11-27T08:39:53.030Z,55
2022-11-27T08:40:52.752Z,60
2022-11-27T08:41:52.475Z,60
2022-11-27T08:42:53.230Z,60
2022-11-27T08:43:53.476Z,60
2022-11-27T08:44:53.284Z,60
2022-11-27T08:45:53.708Z,60
2022-11-27T08:46:52.915Z,60
2022-11-27T08:47:53.409Z,60
2022-11-27T08:48:52.872Z,60
2022-11-27T08:49:55.184Z,60
2022-11-27T08:50:52.830Z,60
2022-11-27T08:51:52.564Z,60
2022-11-27T08:52:53.045Z,60
2022-11-27T08:53:59.359Z,60
2022-11-27T08:55:00.379Z,60
2022-11-27T08:55:52.479Z,60
2022-11-27T08:56:52.208Z,60
2022-11-27T08:57:52.701Z,60
2022-11-27T08:58:52.937Z,60
2022-11-27T08:59:52.660Z,60
2022-11-27T09:00:53.257Z,60
2022-11-27T09:01:52.660Z,60
2022-11-27T09:02:52.875Z,60
2022-11-27T09:03:53.041Z,60
2022-11-27T09:04:52.680Z,60
2022-11-27T09:05:52.547Z,60
2022-11-27T09:06:59.007Z,60
2022-11-27T09:07:52.981Z,60
2022-11-27T09:08:52.492Z,60
2022-11-27T09:09:58.631Z,60
2022-11-27T09:10:53.065Z,60
2022-11-27T09:11:52.439Z,60
2022-11-27T09:12:53.114Z,60
2022-11-27T09:13:52.657Z,60
2022-11-27T09:14:52.633Z,65
2022-11-27T09:15:52.111Z,65
2022-11-27T09:16:53.146Z,65
2022-11-27T09:17:51.812Z,65
2022-11-27T09:18:52.304Z,65
2022-11-27T09:19:52.559Z,65
2022-11-27T09:20:52.523Z,65
2022-11-27T09:21:52.533Z,65
2022-11-27T09:22:52.761Z,65
2022-11-27T09:23:52.226Z,65
2022-11-27T09:24:52.301Z,65
2022-11-27T09:25:52.937Z,65
2022-11-27T09:26:52.780Z,65
2022-11-27T09:27:52.406Z,65
2022-11-27T09:28:52.147Z,65
2022-11-27T09:29:52.111Z,65
2022-11-27T09:30:52.338Z,65
2022-11-27T09:31:52.467Z,65
2022-11-27T09:32:52.058Z,65
2022-11-27T09:33:52.294Z,60
2022-11-27T09:34:52.560Z,60
2022-11-27T09:35:52.305Z,60
2022-11-27T09:36:52.278Z,60
2022-11-27T09:37:52.210Z,60
2022-11-27T09:38:52.472Z,60
2022-11-27T09:39:52.177Z,60
2022-11-27T09:40:52.157Z,60
2022-11-27T09:41:52.119Z,60
2022-11-27T09:42:52.496Z,60
2022-11-27T09:43:52.367Z,60
2022-11-27T09:44:52.718Z,60
2022-11-27T09:45:52.399Z,65
2022-11-27T09:46:52.480Z,65
2022-11-27T09:47:52.467Z,65
2022-11-27T09:48:52.189Z,65
2022-11-27T09:49:52.175Z,65
2022-11-27T09:50:52.171Z,65
2022-11-27T09:51:52.134Z,65
2022-11-27T09:52:52.380Z,65
2022-11-27T09:53:52.350Z,65
2022-11-27T09:54:59.515Z,65
2022-11-27T09:55:52.093Z,65
2022-11-27T09:56:52.046Z,65
2022-11-27T09:57:52.778Z,65
2022-11-27T09:58:52.631Z,65
2022-11-27T09:59:52.252Z,65
2022-11-27T10:00:52.230Z,70
2022-11-27T10:01:58.984Z,70
2022-11-27T10:02:53.095Z,70
2022-11-27T10:03:52.182Z,70
2022-11-27T10:05:26.013Z,70
2022-11-27T10:05:52.147Z,70
2022-11-27T10:06:51.613Z,70
2022-11-27T10:07:52.289Z,70
2022-11-27T10:08:52.088Z,70
2022-11-27T10:09:51.812Z,70
2022-11-27T10:10:52.047Z,70
2022-11-27T10:11:52.057Z,70
2022-11-27T10:12:51.752Z,70
2022-11-27T10:13:52.232Z,70
2022-11-27T10:14:52.650Z,70
2022-11-27T10:15:51.957Z,70
2022-11-27T10:16:54.157Z,70
2022-11-27T10:17:52.170Z,70
2022-11-27T10:18:51.951Z,70
2022-11-27T10:19:51.636Z,70
2022-11-27T10:20:51.891Z,70
2022-11-27T10:21:51.628Z,70
2022-11-27T10:22:51.577Z,70
2022-11-27T10:23:51.822Z,70
2022-11-27T10:24:52.513Z,70
2022-11-27T10:25:52.085Z,70
2022-11-27T10:26:51.541Z,70
2022-11-27T10:27:51.756Z,70
2022-11-27T10:28:51.732Z,70
2022-11-27T10:29:58.075Z,70
2022-11-27T10:30:52.099Z,70
2022-11-27T10:31:51.798Z,70
2022-11-27T10:33:07.420Z,70
2022-11-27T10:33:51.648Z,70
2022-11-27T10:34:51.721Z,70
2022-11-27T10:35:51.368Z,70
2022-11-27T10:36:51.349Z,70
2022-11-27T10:37:51.326Z,70
2022-11-27T10:38:51.264Z,75
2022-11-27T10:39:51.550Z,75
2022-11-27T10:40:51.778Z,75
2022-11-27T10:41:58.931Z,75
2022-11-27T10:42:50.973Z,75
2022-11-27T10:43:51.485Z,75
2022-11-27T10:44:51.843Z,75
2022-11-27T10:45:58.071Z,75
2022-11-27T10:46:51.669Z,75
2022-11-27T10:47:51.401Z,75
2022-11-27T10:48:51.380Z,75
2022-11-27T10:49:51.151Z,70
2022-11-27T10:50:51.366Z,70
2022-11-27T10:51:50.833Z,75
2022-11-27T10:52:57.148Z,75
2022-11-27T10:53:51.325Z,75
2022-11-27T10:54:51.846Z,80
2022-11-27T10:55:51.546Z,80
2022-11-27T10:56:50.995Z,80
2022-11-27T10:57:51.279Z,80
2022-11-27T10:58:50.850Z,80
2022-11-27T10:59:51.463Z,85
2022-11-27T11:00:51.504Z,85
2022-11-27T11:01:58.227Z,85
2022-11-27T11:02:51.863Z,90
2022-11-27T11:03:50.926Z,85
2022-11-27T11:05:50.883Z,85
2022-11-27T11:06:30.823Z,80
2022-11-27T11:07:07.093Z,80
2022-11-27T11:08:07.811Z,75
2022-11-27T11:09:10.771Z,75
2022-11-27T11:10:07.328Z,75
2022-11-27T11:11:07.545Z,75
2022-11-27T11:12:07.541Z,75
2022-11-27T11:13:06.994Z,75
2022-11-27T11:14:07.488Z,75
2022-11-27T11:15:07.279Z,75
2022-11-27T11:16:09.875Z,70
2022-11-27T11:17:07.814Z,80
2022-11-27T11:18:07.964Z,75
2022-11-27T11:19:06.648Z,80
2022-11-27T11:20:06.881Z,85
2022-11-27T11:21:07.372Z,90
2022-11-27T11:22:14.504Z,90
2022-11-27T11:23:07.345Z,90
2022-11-27T11:24:06.817Z,90
2022-11-27T11:25:07.322Z,95
2022-11-27T11:26:07.040Z,95
2022-11-27T11:27:07.284Z,100
2022-11-27T11:28:08.115Z,100
2022-11-27T11:29:07.839Z,100
2022-11-27T11:30:08.103Z,100
2022-11-27T11:31:07.810Z,90
2022-11-27T11:32:08.300Z,85
2022-11-27T11:33:08.406Z,85
2022-11-27T11:34:08.273Z,85
2022-11-27T11:35:10.418Z,90
2022-11-27T11:36:08.027Z,90
2022-11-27T11:37:07.962Z,90
2022-11-27T11:38:07.955Z,95
2022-11-27T11:39:07.673Z,95
2022-11-27T11:40:10.869Z,90
2022-11-27T11:41:07.644Z,90
2022-11-27T11:42:07.620Z,85
2022-11-27T11:43:07.603Z,80
2022-11-27T11:44:07.851Z,75
2022-11-27T11:45:07.579Z,75
2022-11-27T11:46:07.457Z,80
2022-11-27T11:47:07.542Z,85
2022-11-27T11:48:07.518Z,80
2022-11-27T11:49:09.073Z,85
2022-11-27T11:50:09.599Z,85
2022-11-27T11:51:08.569Z,80
2022-11-27T11:52:09.332Z,75
2022-11-27T11:53:08.794Z,75
2022-11-27T11:54:09.025Z,75
2022-11-27T11:55:09.014Z,75
2022-11-27T11:56:08.769Z,70
2022-11-27T11:57:08.720Z,70
2022-11-27T11:58:08.444Z,70
2022-11-27T11:59:08.945Z,70
2022-11-27T12:00:08.489Z,70
2022-11-27T12:01:35.194Z,70
2022-11-27T12:02:09.076Z,70
2022-11-27T12:03:08.366Z,70
2022-11-27T12:04:09.513Z,70
2022-11-27T12:05:09.601Z,70
2022-11-27T12:06:09.062Z,70
2022-11-27T12:07:08.550Z,70
2022-11-27T12:08:09.034Z,70
2022-11-27T12:09:08.277Z,65
2022-11-27T12:10:08.519Z,65
2022-11-27T12:11:08.757Z,65
2022-11-27T12:12:08.720Z,65
2022-11-27T12:13:08.194Z,65
2022-11-27T12:14:08.689Z,65
2022-11-27T12:15:08.944Z,65
2022-11-27T12:16:08.785Z,65
2022-11-27T12:17:08.792Z,65
2022-11-27T12:18:08.773Z,65
2022-11-27T12:19:08.102Z,70
2022-11-27T12:20:08.088Z,70
2022-11-27T12:21:08.940Z,70
2022-11-27T12:22:08.558Z,70
2022-11-27T12:23:08.564Z,70
2022-11-27T12:24:08.373Z,75
2022-11-27T12:25:08.506Z,75
2022-11-27T12:26:07.990Z,75
2022-11-27T12:27:08.217Z,75
2022-11-27T12:28:08.098Z,80
2022-11-27T12:29:09.311Z,80
2022-11-27T12:30:08.933Z,80
2022-11-27T12:31:08.900Z,80
2022-11-27T12:32:08.513Z,80
2022-11-27T12:33:08.373Z,80
2022-11-27T12:34:07.868Z,75
2022-11-27T12:35:07.832Z,70
2022-11-27T12:36:08.326Z,70
2022-11-27T12:37:14.176Z,70
2022-11-27T12:38:08.283Z,70
2022-11-27T12:39:08.019Z,70
2022-11-27T12:40:08.259Z,70
2022-11-27T12:41:07.984Z,70
2022-11-27T12:42:07.722Z,70
2022-11-27T12:43:08.214Z,65
2022-11-27T12:44:07.942Z,65
2022-11-27T12:45:07.925Z,65
2022-11-27T12:46:07.748Z,65
2022-11-27T12:47:08.150Z,65
2022-11-27T12:48:08.212Z,65
2022-11-27T12:49:08.109Z,65
2022-11-27T12:50:08.098Z,65
2022-11-27T12:51:08.091Z,65
2022-11-27T12:52:08.071Z,65
2022-11-27T12:53:08.672Z,65
2022-11-27T12:54:14.105Z,65
2022-11-27T12:55:08.139Z,65
2022-11-27T12:56:07.746Z,65
2022-11-27T12:57:07.986Z,70
2022-11-27T12:58:07.799Z,70
2022-11-27T12:59:07.941Z,70
2022-11-27T13:00:08.192Z,65
2022-11-27T13:01:08.686Z,65
2022-11-27T13:02:08.620Z,65
2022-11-27T13:03:08.185Z,60
2022-11-27T13:04:07.610Z,65
2022-11-27T13:05:07.610Z,60
2022-11-27T13:06:07.572Z,60
2022-11-27T13:07:07.818Z,60
2022-11-27T13:08:08.392Z,60
2022-11-27T13:09:08.145Z,60
2022-11-27T13:10:07.900Z,60
2022-11-27T13:11:07.653Z,60
2022-11-27T13:12:07.470Z,55
2022-11-27T13:13:07.520Z,55
2022-11-27T13:14:07.443Z,55
2022-11-27T13:15:07.419Z,55
2022-11-27T13:16:07.858Z,55
2022-11-27T13:17:08.225Z,55
2022-11-27T13:18:07.781Z,60
2022-11-27T13:19:07.365Z,55
2022-11-27T13:20:07.361Z,55
2022-11-27T13:21:07.100Z,50
2022-11-27T13:22:07.561Z,50
2022-11-27T13:23:07.308Z,50
2022-11-27T13:24:07.535Z,55
2022-11-27T13:25:08.125Z,55
2022-11-27T13:26:07.619Z,50
2022-11-27T13:27:07.850Z,50
2022-11-27T13:28:07.571Z,45
2022-11-27T13:29:07.195Z,45
2022-11-27T13:30:07.450Z,45
2022-11-27T13:31:07.434Z,45
2022-11-27T13:32:07.447Z,45
2022-11-27T13:33:06.633Z,50
2022-11-27T13:34:07.617Z,50
2022-11-27T13:35:07.350Z,50
2022-11-27T13:36:07.338Z,50
2022-11-27T13:37:06.547Z,50
2022-11-27T13:38:07.304Z,50
2022-11-27T13:39:06.520Z,50
2022-11-27T13:40:07.015Z,50
2022-11-27T13:41:07.658Z,50
2022-11-27T13:42:07.078Z,50
2022-11-27T13:43:07.077Z,50
2022-11-27T13:44:13.842Z,50
2022-11-27T13:45:07.202Z,50
2022-11-27T13:46:07.660Z,50
2022-11-27T13:47:06.884Z,50
2022-11-27T13:48:07.132Z,50
2022-11-27T13:49:07.108Z,50
2022-11-27T13:50:06.584Z,50
2022-11-27T13:51:06.582Z,50
2022-11-27T13:52:07.314Z,50
2022-11-27T13:53:07.440Z,50
2022-11-27T13:54:06.760Z,50
2022-11-27T13:55:06.494Z,50
2022-11-27T13:56:06.990Z,45
2022-11-27T13:57:07.079Z,45
2022-11-27T13:58:07.109Z,45
2022-11-27T13:59:07.058Z,45
2022-11-27T14:00:06.930Z,45
2022-11-27T14:01:07.268Z,45
2022-11-27T14:02:07.074Z,45
2022-11-27T14:03:06.622Z,45
2022-11-27T14:04:06.356Z,40
2022-11-27T14:05:07.105Z,40
2022-11-27T14:06:06.845Z,40
2022-11-27T14:07:07.129Z,40
2022-11-27T14:08:07.392Z,40
2022-11-27T14:09:06.257Z,40
2022-11-27T14:10:06.744Z,40
2022-11-27T14:11:06.467Z,40
2022-11-27T14:12:06.717Z,40
2022-11-27T14:13:07.299Z,40
2022-11-27T14:14:07.048Z,40
2022-11-27T14:15:06.799Z,40
2022-11-27T14:16:06.954Z,35
2022-11-27T14:17:06.378Z,35
2022-11-27T14:18:06.511Z,35
2022-11-27T14:19:06.653Z,35
2022-11-27T14:20:06.326Z,35
2022-11-27T14:21:06.037Z,35
2022-11-27T14:22:06.545Z,35
2022-11-27T14:23:23.364Z,30
2022-11-27T14:24:06.766Z,30
2022-11-27T14:25:06.806Z,30
2022-11-27T14:26:08.580Z,30
2022-11-27T14:27:06.450Z,30
2022-11-27T14:28:06.859Z,30
2022-11-27T14:29:13.559Z,30
2022-11-27T14:30:07.074Z,30
2022-11-27T14:31:08.018Z,30
2022-11-27T14:32:08.214Z,30
2022-11-27T14:33:07.094Z,25
2022-11-27T14:34:37.064Z,25
2022-11-27T14:35:07.335Z,25
2022-11-27T14:36:07.907Z,25
2022-11-27T14:37:07.280Z,25
2022-11-27T14:38:07.778Z,25
2022-11-27T14:39:07.135Z,25
2022-11-27T14:40:07.740Z,25
2022-11-27T14:41:07.212Z,20
2022-11-27T14:42:06.677Z,20
2022-11-27T14:43:07.715Z,20
2022-11-27T14:44:07.428Z,15
2022-11-27T14:45:07.410Z,15
2022-11-27T14:46:07.627Z,15